Time;durP1;ratioP1;P1;durP2;ratioP2;P2;SDS_P1;SDS_P2;PMS_P1;PMS_P2;Temp;Humidity;BMP_temperature;BMP_pressure;BME280_temperature;BME280_humidity;BME280_pressure;Samples;Min_cycle;Max_cycle;Signal;HPM_P1;HPM_P2
2023/08/21 02:49:42;;;;;;;18.10;16.40;;;;;;;17.39;79.35;97777.06;81223;1295;102512;-81
2023/08/21 02:52:10;;;;;;;18.90;16.20;;;;;;;17.38;79.26;97777.76;104275;1269;99997;-80
2023/08/21 02:54:37;;;;;;;18.80;16.00;;;;;;;17.38;79.19;97776.51;103966;1271;99413;-80
2023/08/21 02:57:05;;;;;;;18.40;16.30;;;;;;;17.37;79.28;97772.62;104019;1270;96558;-81
2023/08/21 02:59:33;;;;;;;20.50;16.80;;;;;;;17.36;79.06;97770.29;104143;1270;97882;-81
2023/08/21 03:02:00;;;;;;;18.40;16.60;;;;;;;17.34;79.20;97772.51;104050;1270;100850;-76
2023/08/21 03:04:28;;;;;;;18.00;16.10;;;;;;;17.32;79.10;97776.88;103929;1270;100097;-76
2023/08/21 03:06:56;;;;;;;18.20;16.30;;;;;;;17.29;79.31;97775.30;104117;1270;98957;-76
2023/08/21 03:09:23;;;;;;;18.50;16.40;;;;;;;17.27;79.27;97777.66;104052;1271;97063;-76
2023/08/21 03:11:51;;;;;;;16.90;15.20;;;;;;;17.26;79.13;97779.50;103948;1273;97133;-76
2023/08/21 03:14:19;;;;;;;18.30;15.40;;;;;;;17.25;79.21;97777.47;103902;1271;102464;-77
2023/08/21 03:16:46;;;;;;;16.80;15.00;;;;;;;17.21;79.15;97774.66;103921;1285;100455;-80
2023/08/21 03:19:14;;;;;;;17.80;16.00;;;;;;;17.16;79.39;97775.94;103878;1286;100075;-80
2023/08/21 03:21:42;;;;;;;18.40;16.40;;;;;;;17.12;79.46;97775.04;103881;1281;97716;-84
2023/08/21 03:24:09;;;;;;;18.10;16.30;;;;;;;17.10;79.61;97778.06;103945;1268;97038;-84
2023/08/21 03:26:37;;;;;;;19.50;17.50;;;;;;;17.11;79.73;97780.05;103890;1280;101329;-84
2023/08/21 03:29:05;;;;;;;20.60;18.40;;;;;;;17.12;79.65;97780.71;103930;1272;101447;-84
2023/08/21 03:31:32;;;;;;;18.80;16.80;;;;;;;17.12;79.86;97781.54;104004;1284;99010;-83
2023/08/21 03:34:00;;;;;;;21.30;17.30;;;;;;;17.10;79.70;97781.49;103867;1273;97244;-83
2023/08/21 03:36:31;;;;;;;18.40;16.50;;;;;;;17.08;79.80;97784.34;103926;1268;97073;-84
2023/08/21 03:39:00;;;;;;;19.00;17.20;;;;;;;17.08;79.84;97780.69;103899;1273;102268;-84
2023/08/21 03:41:28;;;;;;;20.70;17.20;;;;;;;17.09;79.79;97782.77;103968;1272;101452;-84
2023/08/21 03:43:56;;;;;;;20.00;17.80;;;;;;;17.08;79.75;97780.20;103672;1276;100266;-83
2023/08/21 03:46:24;;;;;;;19.30;17.00;;;;;;;17.08;79.80;97782.16;103965;1274;96586;-84
2023/08/21 03:48:52;;;;;;;20.50;17.80;;;;;;;17.07;79.72;97779.42;103949;1273;97221;-77
2023/08/21 03:51:20;;;;;;;20.20;18.00;;;;;;;17.07;79.80;97780.01;103899;1282;100066;-76
2023/08/21 03:53:48;;;;;;;19.80;17.70;;;;;;;17.05;79.97;97776.36;103895;1273;100375;-76
2023/08/21 03:56:15;;;;;;;20.00;17.90;;;;;;;17.00;79.90;97776.06;103927;1274;99263;-76
2023/08/21 03:58:43;;;;;;;19.70;17.40;;;;;;;16.99;80.11;97772.18;103916;1273;100221;-76
2023/08/21 04:01:11;;;;;;;19.80;17.70;;;;;;;17.00;80.15;97771.04;103962;1267;97103;-77
2023/08/21 04:03:38;;;;;;;19.90;16.60;;;;;;;17.00;79.99;97770.49;103925;1272;101216;-77
2023/08/21 04:06:06;;;;;;;19.90;17.20;;;;;;;16.99;80.18;97771.73;103724;1284;101344;-76
2023/08/21 04:08:34;;;;;;;18.60;16.70;;;;;;;16.96;80.14;97769.81;103311;1281;100248;-84
2023/08/21 04:11:02;;;;;;;20.00;16.40;;;;;;;16.89;80.21;97767.67;103264;1277;97968;-84
2023/08/21 04:13:30;;;;;;;23.60;18.70;;;;;;;16.86;80.44;97768.48;103238;1279;97224;-84
2023/08/21 04:15:57;;;;;;;21.50;19.30;;;;;;;16.81;81.24;97766.80;103298;1278;100959;-84
2023/08/21 04:18:25;;;;;;;23.50;19.90;;;;;;;16.76;81.11;97770.15;103256;1291;100607;-84
2023/08/21 04:20:53;;;;;;;21.50;19.10;;;;;;;16.77;81.17;97771.64;103225;1276;99092;-84
2023/08/21 04:23:20;;;;;;;21.20;19.00;;;;;;;16.80;81.18;97773.88;103273;1274;96686;-84
2023/08/21 04:25:48;;;;;;;23.10;20.20;;;;;;;16.82;81.39;97773.91;103357;1280;97099;-77
2023/08/21 04:28:16;;;;;;;23.90;20.30;;;;;;;16.85;81.60;97773.42;103306;1274;101255;-77
2023/08/21 04:30:43;;;;;;;27.40;20.00;;;;;;;16.89;81.54;97775.80;103296;1280;101932;-81
2023/08/21 04:33:11;;;;;;;22.50;19.50;;;;;;;16.92;81.44;97777.17;103351;1280;99773;-80
2023/08/21 04:35:39;;;;;;;22.20;19.90;;;;;;;16.95;81.37;97779.67;103303;1279;97113;-82
2023/08/21 04:38:08;;;;;;;22.40;19.90;;;;;;;16.99;81.38;97780.12;102904;1284;98001;-80
2023/08/21 04:40:36;;;;;;;23.30;20.80;;;;;;;17.01;81.44;97777.23;103695;1277;101228;-81
2023/08/21 04:43:03;;;;;;;25.60;20.40;;;;;;;17.03;81.50;97782.15;103713;1270;100388;-81
2023/08/21 04:45:32;;;;;;;22.50;20.00;;;;;;;17.05;81.57;97783.73;103688;1283;99944;-80
2023/08/21 04:48:00;;;;;;;25.30;20.90;;;;;;;17.07;81.64;97783.61;103673;1287;96686;-81
2023/08/21 04:50:28;;;;;;;23.90;21.00;;;;;;;17.10;81.75;97784.61;103958;1290;96490;-81
2023/08/21 04:52:55;;;;;;;26.00;20.80;;;;;;;17.13;81.72;97782.61;103982;1272;101258;-80
2023/08/21 04:55:24;;;;;;;23.50;21.00;;;;;;;17.16;81.73;97781.59;103756;1273;102462;-81
2023/08/21 04:57:51;;;;;;;24.30;21.60;;;;;;;17.19;81.99;97782.16;103741;1274;98817;-81
2023/08/21 05:00:19;;;;;;;25.00;22.30;;;;;;;17.22;81.86;97780.46;103749;1274;96746;-81
2023/08/21 05:02:47;;;;;;;34.00;30.20;;;;;;;17.25;81.88;97781.67;103785;1274;97195;-81
2023/08/21 05:05:15;;;;;;;37.10;31.80;;;;;;;17.28;82.01;97786.78;103924;1273;102088;-81
2023/08/21 05:07:43;;;;;;;35.40;29.60;;;;;;;17.31;81.92;97786.47;103896;1284;110528;-81
2023/08/21 05:10:11;;;;;;;31.40;26.90;;;;;;;17.35;82.05;97789.11;103764;1276;100007;-81
2023/08/21 05:12:39;;;;;;;29.80;24.90;;;;;;;17.40;82.10;97791.81;103787;1274;96622;-81
2023/08/21 05:15:07;;;;;;;27.00;23.50;;;;;;;17.44;82.15;97791.66;103769;1273;97223;-81
2023/08/21 05:17:34;;;;;;;27.70;23.40;;;;;;;17.48;82.30;97790.28;103807;1274;102450;-81
2023/08/21 05:20:03;;;;;;;27.70;23.50;;;;;;;17.53;82.24;97792.86;103987;1286;101574;-80
2023/08/21 05:22:31;;;;;;;26.90;24.00;;;;;;;17.59;82.37;97793.03;103908;1275;99768;-81
2023/08/21 05:24:58;;;;;;;30.60;24.20;;;;;;;17.65;82.56;97792.16;103907;1273;97396;-81
2023/08/21 05:27:26;;;;;;;26.70;23.90;;;;;;;17.69;82.76;97790.88;104041;1289;96571;-81
2023/08/21 05:29:54;;;;;;;28.00;23.60;;;;;;;17.75;82.79;97785.67;104112;1271;101081;-81
2023/08/21 05:32:21;;;;;;;32.90;25.50;;;;;;;17.79;83.01;97779.04;104171;1268;100480;-81
2023/08/21 05:34:49;;;;;;;27.20;23.80;;;;;;;17.85;83.09;97782.04;104131;1267;100356;-81
2023/08/21 05:37:17;;;;;;;27.70;23.50;;;;;;;17.91;82.99;97784.67;104022;1268;96586;-81
2023/08/21 05:39:44;;;;;;;28.10;23.40;;;;;;;17.96;83.22;97786.86;103969;1274;97072;-81
2023/08/21 05:42:12;;;;;;;29.00;23.50;;;;;;;18.03;83.38;97787.81;103995;1284;101337;-81
2023/08/21 05:44:40;;;;;;;29.50;25.30;;;;;;;18.09;83.57;97788.20;104002;1273;100423;-80
2023/08/21 05:47:07;;;;;;;29.60;25.10;;;;;;;18.15;83.60;97785.72;104018;1286;100075;-77
2023/08/21 05:49:35;;;;;;;26.80;23.50;;;;;;;18.22;83.85;97785.00;103999;1271;97181;-77
2023/08/21 05:52:03;;;;;;;29.60;24.80;;;;;;;18.28;84.13;97786.08;104046;1271;97219;-77
2023/08/21 05:54:31;;;;;;;27.40;24.60;;;;;;;18.35;84.09;97784.14;104028;1271;100151;-76
2023/08/21 05:56:59;;;;;;;26.20;23.60;;;;;;;18.43;84.12;97785.61;103994;1270;100132;-77
2023/08/21 05:59:29;;;;;;;27.10;24.30;;;;;;;18.51;84.30;97788.14;104010;1272;99016;-77
2023/08/21 06:01:56;;;;;;;27.40;24.60;;;;;;;18.60;84.45;97782.48;103855;1276;96885;-76
2023/08/21 06:04:26;;;;;;;26.80;23.90;;;;;;;18.69;84.66;97774.64;103998;1273;97047;-77
2023/08/21 06:06:54;;;;;;;26.30;23.40;;;;;;;18.77;84.60;97770.95;103750;1275;101380;-77
2023/08/21 06:09:22;;;;;;;30.40;23.90;;;;;;;18.85;84.78;97768.42;103902;1271;101501;-77
2023/08/21 06:11:50;;;;;;;26.60;23.80;;;;;;;18.94;84.89;97771.05;103956;1281;98544;-77
2023/08/21 06:14:17;;;;;;;30.10;25.10;;;;;;;19.02;85.15;97769.40;104015;1270;96665;-77
2023/08/21 06:16:45;;;;;;;25.10;22.60;;;;;;;19.12;84.80;97763.44;104041;1270;97034;-77
2023/08/21 06:19:13;;;;;;;26.20;23.50;;;;;;;19.22;84.89;97758.55;103970;1271;101265;-76
2023/08/21 06:21:40;;;;;;;26.20;22.30;;;;;;;19.30;85.00;97761.59;104025;1282;101669;-77
2023/08/21 06:24:08;;;;;;;25.10;22.50;;;;;;;19.39;85.04;97767.80;103996;1280;99455;-76
2023/08/21 06:26:36;;;;;;;25.30;22.80;;;;;;;19.47;84.90;97770.37;104028;1271;97234;-76
2023/08/21 06:29:03;;;;;;;25.00;22.40;;;;;;;19.57;84.90;97767.58;104120;1270;97009;-77
2023/08/21 06:31:31;;;;;;;24.90;22.50;;;;;;;19.65;84.76;97769.13;103739;1275;100971;-77
2023/08/21 06:33:59;;;;;;;23.40;21.10;;;;;;;19.75;84.73;97771.18;103806;1273;100542;-77
2023/08/21 06:36:27;;;;;;;24.50;22.00;;;;;;;19.85;84.50;97767.48;103380;1275;109605;-77
2023/08/21 06:38:57;;;;;;;24.00;21.50;;;;;;;19.93;84.51;97769.46;103762;1274;98108;-77
2023/08/21 06:41:25;;;;;;;24.00;21.50;;;;;;;20.03;84.64;97768.11;103831;1274;99116;-77
2023/08/21 06:43:52;;;;;;;24.10;21.50;;;;;;;20.15;84.92;97767.98;103714;1284;102362;-77
2023/08/21 06:46:20;;;;;;;24.30;21.40;;;;;;;20.25;84.94;97769.97;103793;1276;99849;-79
2023/08/21 06:48:50;;;;;;;29.30;22.00;;;;;;;20.35;84.82;97770.77;103328;1287;98025;-79
2023/08/21 06:51:17;;;;;;;23.40;21.20;;;;;;;20.46;84.80;97768.15;103183;1290;96810;-79
2023/08/21 06:53:46;;;;;;;23.70;21.20;;;;;;;20.56;84.64;97764.96;103282;1276;97147;-79
2023/08/21 06:56:14;;;;;;;25.20;20.90;;;;;;;20.66;84.47;97763.80;103161;1282;102146;-79
2023/08/21 06:58:41;;;;;;;24.00;21.10;;;;;;;20.77;84.44;97763.14;103241;1280;100145;-79
2023/08/21 07:01:09;;;;;;;21.90;19.70;;;;;;;20.89;84.28;97764.72;103351;1278;98035;-79
2023/08/21 07:03:37;;;;;;;25.50;22.80;;;;;;;21.01;84.26;97766.91;103512;1277;97321;-79
2023/08/21 07:06:05;;;;;;;24.40;22.10;;;;;;;21.15;84.15;97766.47;103367;1280;97016;-79
2023/08/21 07:08:33;;;;;;;22.00;19.80;;;;;;;21.29;83.89;97765.42;103356;1274;102386;-79
2023/08/21 07:11:04;;;;;;;21.70;19.50;;;;;;;21.43;83.46;97760.23;103367;1287;99660;-79
2023/08/21 07:13:32;;;;;;;22.40;20.00;;;;;;;21.57;83.27;97759.83;103430;1286;99164;-79
2023/08/21 07:16:02;;;;;;;19.80;17.80;;;;;;;21.78;83.43;97756.69;103111;1279;96801;-76
2023/08/21 07:18:34;;;;;;;21.20;18.20;;;;;;;21.99;82.90;97755.27;103137;1277;97065;-79
2023/08/21 07:21:04;;;;;;;21.90;19.70;;;;;;;22.19;82.80;97755.76;103402;1277;101187;-83
2023/08/21 07:23:33;;;;;;;20.20;17.80;;;;;;;22.40;82.70;97758.90;103610;1277;108891;-83
2023/08/21 07:26:04;;;;;;;21.10;17.80;;;;;;;22.54;82.04;97760.46;103330;1277;100358;-84
2023/08/21 07:28:32;;;;;;;20.30;18.20;;;;;;;22.67;81.55;97759.60;103303;1279;96641;-84
2023/08/21 07:31:00;;;;;;;18.00;16.30;;;;;;;22.80;80.83;97762.70;103478;1274;97287;-79
2023/08/21 07:33:28;;;;;;;19.00;16.70;;;;;;;22.90;80.04;97764.45;103171;1290;102534;-80
2023/08/21 07:36:00;;;;;;;18.10;16.30;;;;;;;23.01;79.46;97763.46;103199;1279;101760;-79
2023/08/21 07:38:28;;;;;;;18.30;16.50;;;;;;;23.11;78.83;97764.77;103354;1280;99346;-83
2023/08/21 07:41:12;;;;;;;18.10;16.30;;;;;;;23.21;78.52;97768.19;103110;1298;96817;-84
2023/08/21 07:43:44;;;;;;;21.40;16.70;;;;;;;23.32;78.26;97769.83;103206;1278;97637;-83
2023/08/21 07:46:15;;;;;;;18.20;16.40;;;;;;;23.44;78.13;97772.85;103196;1273;101489;-79
2023/08/21 07:48:43;;;;;;;21.80;16.20;;;;;;;23.54;77.92;97771.43;103111;1281;100827;-79
2023/08/21 07:51:11;;;;;;;18.20;16.40;;;;;;;23.65;77.91;97767.89;103292;1280;106977;-79
2023/08/21 07:53:39;;;;;;;19.10;17.20;;;;;;;23.75;77.73;97772.95;103157;1286;97655;-79
2023/08/21 07:56:08;;;;;;;21.50;17.80;;;;;;;23.81;77.55;97771.52;103288;1291;97445;-79
2023/08/21 07:58:35;;;;;;;19.40;17.40;;;;;;;23.87;77.14;97775.77;103304;1279;101103;-77
2023/08/21 08:01:04;;;;;;;18.80;16.90;;;;;;;23.93;77.05;97776.70;103346;1283;99037;-88
2023/08/21 08:03:32;;;;;;;21.50;16.30;;;;;;;24.01;76.75;97777.30;103274;1279;99827;-87
2023/08/21 08:06:00;;;;;;;20.40;17.30;;;;;;;24.14;76.13;97775.31;103605;1275;98022;-88
2023/08/21 08:08:29;;;;;;;19.00;16.90;;;;;;;24.24;75.80;97774.31;103681;1276;98158;-87
2023/08/21 08:10:56;;;;;;;18.60;16.60;;;;;;;24.35;75.40;97772.27;103412;1287;101944;-87
2023/08/21 08:13:24;;;;;;;18.50;16.70;;;;;;;24.47;75.69;97769.83;103235;1291;100693;-88
2023/08/21 08:15:52;;;;;;;18.60;16.70;;;;;;;24.66;75.48;97771.01;103331;1292;99971;-88
2023/08/21 08:18:20;;;;;;;18.30;16.20;;;;;;;24.95;74.92;97773.45;103240;1283;96781;-78
2023/08/21 08:20:47;;;;;;;17.80;16.00;;;;;;;25.27;73.98;97773.98;103176;1279;97032;-78
2023/08/21 08:23:15;;;;;;;18.50;16.10;;;;;;;25.49;73.32;97774.93;103220;1280;101321;-78
2023/08/21 08:25:43;;;;;;;19.10;16.00;;;;;;;25.67;72.51;97775.85;103253;1283;101819;-78
2023/08/21 08:28:10;;;;;;;18.90;16.90;;;;;;;25.93;72.48;97774.39;103467;1285;99206;-78
2023/08/21 08:30:38;;;;;;;19.70;17.80;;;;;;;26.28;72.46;97776.59;103597;1277;96991;-78
2023/08/21 08:33:06;;;;;;;19.20;16.70;;;;;;;26.57;72.10;97777.17;103682;1279;98286;-78
2023/08/21 08:35:33;;;;;;;16.40;14.70;;;;;;;26.79;71.75;97775.36;103733;1273;102299;-78
2023/08/21 08:38:02;;;;;;;17.80;15.20;;;;;;;27.05;70.77;97773.95;103660;1287;101564;-78
2023/08/21 08:40:30;;;;;;;18.70;16.60;;;;;;;27.23;69.83;97778.63;103732;1276;99081;-78
2023/08/21 08:42:57;;;;;;;16.00;14.30;;;;;;;27.50;69.87;97774.46;103402;1295;148041;-78
2023/08/21 08:45:31;;;;;;;15.60;14.10;;;;;;;27.82;68.94;97773.83;103997;1273;97028;-86
2023/08/21 08:48:03;;;;;;;15.70;14.00;;;;;;;28.07;67.80;97774.02;103882;1274;100544;-88
2023/08/21 08:50:32;;;;;;;16.20;14.30;;;;;;;28.38;67.53;97770.27;104056;1270;101525;-89
2023/08/21 08:53:01;;;;;;;16.50;14.60;;;;;;;28.50;66.33;97770.71;104054;1281;100128;-89
2023/08/21 08:55:29;;;;;;;14.00;12.60;;;;;;;28.49;65.82;97770.48;103935;1274;96864;-79
2023/08/21 08:57:57;;;;;;;15.30;13.30;;;;;;;28.51;63.86;97772.73;104059;1270;97137;-79
2023/08/21 09:00:24;;;;;;;15.10;13.70;;;;;;;28.51;64.30;97774.40;104176;1270;102380;-89
2023/08/21 09:02:53;;;;;;;19.70;13.90;;;;;;;28.50;64.62;97775.88;104007;1281;101157;-89
2023/08/21 09:05:20;;;;;;;15.20;12.60;;;;;;;28.47;64.19;97779.92;103520;1283;99704;-90
2023/08/21 09:08:03;;;;;;;15.80;13.80;;;;;;;28.41;64.11;97779.73;103711;1284;96600;-89
2023/08/21 09:10:32;;;;;;;16.50;13.90;;;;;;;28.35;64.08;97777.79;103425;1290;97843;-89
2023/08/21 09:13:01;;;;;;;17.20;14.80;;;;;;;28.32;64.11;97779.20;103684;1284;102453;-89
2023/08/21 09:15:30;;;;;;;16.70;14.60;;;;;;;28.33;64.23;97779.67;104068;1270;101544;-87
2023/08/21 09:17:58;;;;;;;15.80;14.20;;;;;;;28.38;64.74;97778.59;103788;1277;100583;-91
2023/08/21 09:20:26;;;;;;;15.70;14.10;;;;;;;28.42;64.80;97778.83;103782;1276;96686;-90
2023/08/21 09:22:56;;;;;;;16.00;14.40;;;;;;;28.42;64.89;97776.88;103728;1284;96586;-90
2023/08/21 09:25:25;;;;;;;16.40;14.80;;;;;;;28.43;64.97;97774.86;103736;1275;101920;-89
2023/08/21 09:27:54;;;;;;;18.60;14.60;;;;;;;28.45;64.81;97773.47;103749;1283;100379;-90
2023/08/21 09:30:22;;;;;;;17.00;14.60;;;;;;;28.45;64.41;97770.64;103731;1288;100091;-89
2023/08/21 09:32:59;;;;;;;16.00;14.30;;;;;;;28.46;64.17;97768.95;103751;1276;96759;-88
2023/08/21 09:35:28;;;;;;;19.90;14.70;;;;;;;28.48;63.64;97768.01;103788;1271;96996;-78
2023/08/21 09:37:55;;;;;;;16.70;15.00;;;;;;;28.54;63.60;97766.40;103482;1287;101417;-78
2023/08/21 09:40:23;;;;;;;14.60;13.20;;;;;;;28.64;64.35;97763.44;104169;1281;101379;-78
2023/08/21 09:42:55;;;;;;;14.60;13.10;;;;;;;28.76;63.60;97760.79;104102;1285;99293;-78
2023/08/21 09:45:24;;;;;;;15.70;13.50;;;;;;;28.90;62.60;97753.64;103903;1276;97031;-86
2023/08/21 09:47:53;;;;;;;14.30;12.30;;;;;;;29.08;61.77;97757.58;104017;1270;97028;-88
2023/08/21 09:50:23;;;;;;;14.10;12.70;;;;;;;29.21;61.41;97754.17;104117;1280;102145;-88
2023/08/21 09:52:52;;;;;;;13.40;12.10;;;;;;;29.24;61.29;97755.28;104062;1271;100536;-87
2023/08/21 09:55:21;;;;;;;13.80;11.70;;;;;;;29.22;60.63;97752.54;104062;1273;99923;-86
2023/08/21 09:57:58;;;;;;;14.60;13.00;;;;;;;29.18;60.11;97750.60;104035;1272;97262;-87
2023/08/21 10:00:34;;;;;;;14.50;13.20;;;;;;;29.14;60.14;97753.83;103801;1289;97019;-79
2023/08/21 10:03:05;;;;;;;14.70;13.20;;;;;;;29.08;59.96;97750.13;104049;1271;103283;-78
2023/08/21 10:05:34;;;;;;;14.80;13.20;;;;;;;29.02;60.26;97751.77;104031;1289;101429;-78
2023/08/21 10:08:04;;;;;;;17.00;14.00;;;;;;;28.98;60.35;97752.61;104084;1270;99334;-79
2023/08/21 10:10:33;;;;;;;14.70;13.30;;;;;;;29.07;60.44;97749.77;103993;1286;96786;-79
2023/08/21 10:13:02;;;;;;;14.80;13.40;;;;;;;29.25;61.00;97749.38;104161;1272;97127;-77
2023/08/21 10:15:32;;;;;;;15.60;13.40;;;;;;;29.45;60.33;97744.85;104125;1270;102435;-78
2023/08/21 10:18:19;;;;;;;14.50;13.10;;;;;;;29.52;59.90;97740.21;104151;1271;110333;-79
2023/08/21 10:20:48;;;;;;;15.30;13.60;;;;;;;29.49;59.65;97736.48;103914;1267;99240;-78
2023/08/21 10:23:30;;;;;;;14.70;13.10;;;;;;;29.48;59.64;97735.45;104135;1267;97507;-78
2023/08/21 10:26:00;;;;;;;13.90;12.60;;;;;;;29.49;59.69;97736.55;103976;1275;97114;-78
2023/08/21 10:28:43;;;;;;;14.40;12.70;;;;;;;29.51;59.04;97737.86;104189;1271;102203;-78
2023/08/21 10:31:30;;;;;;;14.70;12.90;;;;;;;29.58;59.70;97735.41;104128;1280;100399;-79
2023/08/21 10:33:59;;;;;;;14.00;12.80;;;;;;;29.73;59.98;97731.94;104113;1274;99078;-79
2023/08/21 10:37:04;;;;;;;13.00;11.90;;;;;;;29.96;60.55;97733.72;103742;1288;97326;-80
2023/08/21 10:39:33;;;;;;;13.90;12.50;;;;;;;30.13;59.87;97731.87;103884;1274;97047;-79
2023/08/21 10:42:13;;;;;;;13.00;11.90;;;;;;;30.12;59.12;97735.23;103878;1270;102151;-80
2023/08/21 10:44:45;;;;;;;14.00;12.70;;;;;;;30.04;58.83;97736.23;103993;1273;101125;-80
2023/08/21 10:47:20;;;;;;;;;;;;;;;29.95;57.71;97740.41;103966;1283;100084;-80
2023/08/21 10:49:56;;;;;;;14.50;13.20;;;;;;;29.76;57.60;97738.84;103925;1273;97302;-80
2023/08/21 10:52:33;;;;;;;13.00;11.80;;;;;;;29.67;58.08;97742.29;103980;1274;97935;-80
2023/08/21 10:55:03;;;;;;;14.60;13.20;;;;;;;29.62;58.24;97743.40;103784;1285;102528;-80
2023/08/21 10:57:33;;;;;;;14.60;13.20;;;;;;;29.55;58.18;97742.25;103189;1293;100508;-79
2023/08/21 11:00:01;;;;;;;15.30;13.20;;;;;;;29.40;57.61;97740.98;103513;1288;99137;-80
2023/08/21 11:02:30;;;;;;;17.40;14.20;;;;;;;29.24;58.05;97738.36;103469;1293;96586;-77
2023/08/21 11:04:59;;;;;;;16.30;14.90;;;;;;;29.11;58.83;97739.41;103217;1286;97194;-77
2023/08/21 11:07:28;;;;;;;18.40;14.90;;;;;;;28.98;59.32;97731.40;103501;1291;100783;-77
2023/08/21 11:09:57;;;;;;;17.20;15.00;;;;;;;28.89;59.72;97731.99;103594;1276;100424;-76
2023/08/21 11:12:25;;;;;;;16.30;14.50;;;;;;;28.82;59.78;97733.04;103462;1278;100102;-76
2023/08/21 11:14:53;;;;;;;17.00;15.10;;;;;;;28.75;59.86;97730.80;103003;1291;98012;-76
2023/08/21 11:17:23;;;;;;;16.60;15.00;;;;;;;28.69;59.36;97730.36;103437;1276;97058;-76
2023/08/21 11:19:51;;;;;;;16.80;14.90;;;;;;;28.65;59.69;97727.76;103398;1286;101410;-76
2023/08/21 11:22:19;;;;;;;21.20;15.00;;;;;;;28.66;60.08;97727.66;103448;1287;101355;-76
2023/08/21 11:24:49;;;;;;;17.70;15.50;;;;;;;28.67;60.27;97731.27;103329;1276;100012;-77
2023/08/21 11:27:21;;;;;;;17.60;15.80;;;;;;;28.67;60.60;97730.88;103630;1277;97622;-77
2023/08/21 11:29:51;;;;;;;21.90;15.40;;;;;;;28.67;60.49;97731.10;103897;1273;97131;-77
2023/08/21 11:32:21;;;;;;;16.50;14.90;;;;;;;28.64;60.45;97731.17;103860;1284;101284;-77
2023/08/21 11:34:55;;;;;;;18.10;16.20;;;;;;;28.60;60.43;97731.31;104101;1270;100602;-77
2023/08/21 11:37:27;;;;;;;16.90;15.30;;;;;;;28.63;60.81;97731.15;103960;1286;99421;-77
2023/08/21 11:39:57;;;;;;;16.00;14.20;;;;;;;28.78;61.15;97728.51;103950;1273;96714;-76
2023/08/21 11:42:33;;;;;;;17.00;14.60;;;;;;;28.99;60.67;97723.52;103728;1271;97414;-77
2023/08/21 11:45:02;;;;;;;18.30;14.70;;;;;;;29.21;59.77;97723.47;103863;1284;101429;-77
2023/08/21 11:47:35;;;;;;;15.90;14.40;;;;;;;29.41;59.35;97723.45;103897;1277;100128;-77
2023/08/21 11:50:05;;;;;;;16.10;14.50;;;;;;;29.56;58.49;97723.53;103959;1277;99339;-77
2023/08/21 11:52:33;;;;;;;16.50;14.50;;;;;;;29.62;58.24;97725.79;103504;1273;96584;-77
2023/08/21 11:55:01;;;;;;;15.30;13.60;;;;;;;29.60;58.53;97723.09;103922;1276;97021;-77
2023/08/21 11:57:30;;;;;;;15.60;14.00;;;;;;;29.71;58.78;97720.15;103912;1285;102554;-77
2023/08/21 11:59:57;;;;;;;16.30;13.90;;;;;;;29.86;58.32;97715.80;103860;1271;100137;-77
2023/08/21 12:02:28;;;;;;;16.00;14.20;;;;;;;30.02;58.01;97712.20;103886;1283;99079;-77
2023/08/21 12:05:03;;;;;;;16.30;14.60;;;;;;;30.18;58.13;97714.20;103642;1276;98412;-77
2023/08/21 12:07:30;;;;;;;17.50;14.30;;;;;;;30.34;57.45;97715.55;103329;1279;97919;-76
2023/08/21 12:09:58;;;;;;;14.80;13.30;;;;;;;30.50;56.65;97713.92;103923;1277;102464;-77
2023/08/21 12:12:26;;;;;;;15.40;13.10;;;;;;;30.64;56.41;97716.50;103848;1274;100369;-77
2023/08/21 12:14:54;;;;;;;16.60;13.50;;;;;;;30.72;55.83;97714.69;104000;1270;99077;-77
2023/08/21 12:17:21;;;;;;;14.40;13.00;;;;;;;30.79;56.27;97710.86;104050;1273;97809;-77
2023/08/21 12:19:49;;;;;;;15.70;14.10;;;;;;;30.90;55.96;97710.73;104036;1273;96570;-77
2023/08/21 12:22:17;;;;;;;15.20;13.70;;;;;;;31.00;55.07;97708.45;104072;1270;101306;-77
2023/08/21 12:24:44;;;;;;;15.30;12.80;;;;;;;31.01;53.92;97704.05;104003;1273;100513;-77
2023/08/21 12:27:12;;;;;;;14.30;12.90;;;;;;;31.00;54.14;97700.72;104087;1274;98963;-78
2023/08/21 12:29:40;;;;;;;15.20;12.90;;;;;;;31.10;54.77;97702.17;104037;1271;96590;-78
2023/08/21 12:32:08;;;;;;;13.70;12.40;;;;;;;31.28;55.07;97695.77;104048;1281;96531;-77
2023/08/21 12:34:35;;;;;;;13.70;12.30;;;;;;;31.42;54.04;97698.55;103989;1271;102008;-77
2023/08/21 12:37:03;;;;;;;12.60;11.50;;;;;;;31.51;52.99;97695.97;104007;1281;101323;-77
2023/08/21 12:39:31;;;;;;;12.10;10.90;;;;;;;31.54;51.87;97695.98;104028;1274;98717;-77
2023/08/21 12:41:59;;;;;;;11.70;9.60;;;;;;;31.59;51.46;97696.21;103981;1271;97431;-77
2023/08/21 12:44:26;;;;;;;10.40;9.50;;;;;;;31.67;50.53;97695.58;104000;1268;97150;-77
2023/08/21 12:46:54;;;;;;;12.50;11.00;;;;;;;31.78;51.15;97698.92;104092;1273;100784;-77
2023/08/21 12:49:21;;;;;;;12.80;10.80;;;;;;;31.81;51.38;97693.22;103875;1276;100675;-77
2023/08/21 12:51:49;;;;;;;12.00;10.80;;;;;;;31.66;50.76;97690.75;104053;1270;99275;-78
2023/08/21 12:54:17;;;;;;;12.20;10.90;;;;;;;31.57;50.91;97687.11;104174;1267;96845;-78
2023/08/21 12:56:45;;;;;;;13.30;11.80;;;;;;;31.63;51.18;97682.73;104225;1270;97909;-77
2023/08/21 12:59:16;;;;;;;12.60;11.30;;;;;;;31.71;51.65;97686.09;104100;1267;101272;-77
2023/08/21 13:01:43;;;;;;;15.00;12.10;;;;;;;31.82;51.19;97679.73;104155;1270;101266;-78
2023/08/21 13:04:11;;;;;;;13.40;10.80;;;;;;;31.82;50.25;97671.81;104118;1274;100121;-78
2023/08/21 13:06:39;;;;;;;13.80;12.60;;;;;;;31.72;51.25;97673.05;104046;1273;96611;-78
2023/08/21 13:09:06;;;;;;;12.70;11.10;;;;;;;31.69;51.23;97669.59;104145;1267;97826;-78
2023/08/21 13:11:34;;;;;;;13.10;11.40;;;;;;;31.69;50.50;97664.94;104138;1270;102319;-77
2023/08/21 13:14:02;;;;;;;13.50;11.10;;;;;;;31.62;50.61;97667.22;104125;1270;101224;-78
2023/08/21 13:16:30;;;;;;;12.20;11.00;;;;;;;31.56;51.04;97665.55;104179;1267;99770;-77
2023/08/21 13:18:57;;;;;;;16.20;11.50;;;;;;;31.46;51.20;97664.85;104148;1271;97939;-77
2023/08/21 13:21:25;;;;;;;12.60;11.20;;;;;;;31.33;51.26;97662.04;104257;1267;97106;-78
2023/08/21 13:23:53;;;;;;;12.40;11.30;;;;;;;31.19;51.51;97665.42;104096;1267;101452;-77
2023/08/21 13:26:21;;;;;;;12.90;11.60;;;;;;;31.08;51.91;97668.00;104155;1270;100620;-85
2023/08/21 13:28:49;;;;;;;15.30;12.50;;;;;;;30.93;52.47;97669.70;104016;1267;98719;-85
2023/08/21 13:31:17;;;;;;;12.80;11.70;;;;;;;30.81;52.42;97666.20;104037;1267;97215;-89
2023/08/21 13:33:46;;;;;;;14.10;12.70;;;;;;;30.74;52.31;97663.05;103865;1273;97127;-88
2023/08/21 13:36:15;;;;;;;13.30;12.10;;;;;;;30.67;52.25;97662.57;103924;1278;102311;-89
2023/08/21 13:38:44;;;;;;;14.00;12.20;;;;;;;30.59;52.11;97662.02;103984;1267;100534;-89
2023/08/21 13:41:11;;;;;;;14.50;12.90;;;;;;;30.50;52.16;97659.87;104091;1271;99842;-89
2023/08/21 13:43:39;;;;;;;13.80;12.50;;;;;;;30.42;52.72;97656.04;104004;1267;96807;-88
2023/08/21 13:46:07;;;;;;;13.70;12.10;;;;;;;30.33;53.13;97653.36;103952;1282;97056;-88
2023/08/21 13:48:35;;;;;;;15.40;13.40;;;;;;;30.25;53.85;97652.77;103996;1274;102538;-89
2023/08/21 13:51:03;;;;;;;14.40;13.00;;;;;;;30.16;54.21;97651.27;103876;1285;100642;-88
2023/08/21 13:53:30;;;;;;;13.90;12.60;;;;;;;30.06;54.06;97652.43;104044;1274;99047;-89
2023/08/21 13:55:58;;;;;;;15.90;12.90;;;;;;;29.99;54.13;97653.89;104190;1270;97856;-89
2023/08/21 13:58:26;;;;;;;14.20;12.80;;;;;;;29.94;54.82;97655.89;104771;1270;97219;-89
2023/08/21 14:00:55;;;;;;;14.80;13.40;;;;;;;29.87;55.14;97656.51;104223;1289;102206;-77
2023/08/21 14:03:24;;;;;;;15.90;14.40;;;;;;;29.79;54.98;97650.98;104143;1267;100043;-77